St Columbans, Nebraska
Current Conditions -  °F | °C
As of 4:15 PM on Friday 24 Oct 2014 (Local Time) from KMLE Reporting Station
Clear Clear  
Wind Chill: 74°   Ceiling: Unl
Heat Index: 74°   Visibility: 10mi
Dew Point: 58°   Wind: 0mph
Humidity: 57%   Direction: NA
Pressure: 29.9"   Gusts: NA
Location:  41.0927°N, 96.0905°W
Report Text: KMLE 242115Z AUTO 00000KT 10SM CLR 24/14 A2990 RMK AO2 T02350144
Loading
Personal Weather Stations






























Interactive Weather Map
Tropical Storm Tracking
New forecast layout! Learn more

10-Day Weather Forecast

Advertisements
Track Severe Weather on mobile